Time;durP1;ratioP1;P1;durP2;ratioP2;P2;SDS_P1;SDS_P2;PMS_P1;PMS_P2;Temp;Humidity;BMP_temperature;BMP_pressure;BME280_temperature;BME280_humidity;BME280_pressure;Samples;Min_cycle;Max_cycle;Signal;HPM_P1;HPM_P2
2022/01/30 00:02:06;;;;;;;7.30;2.85;;;9.50;57.00;;;;;;5046792;28;34548;-76
2022/01/30 00:04:32;;;;;;;8.30;2.40;;;9.40;56.60;;;;;;5063088;28;35719;-76
2022/01/30 00:06:57;;;;;;;7.63;2.08;;;9.40;56.90;;;;;;5062752;28;34128;-76
2022/01/30 00:09:23;;;;;;;11.50;2.80;;;9.40;56.90;;;;;;5063988;28;34127;-77
2022/01/30 00:11:55;;;;;;;8.40;2.60;;;9.30;56.80;;;;;;5063083;28;34122;-77
2022/01/30 00:14:23;;;;;;;6.88;1.75;;;9.20;56.80;;;;;;5046312;28;36302;-77
2022/01/30 00:16:57;;;;;;;12.55;2.10;;;9.10;57.00;;;;;;5063606;28;34217;-77
2022/01/30 00:19:38;;;;;;;7.63;2.20;;;9.10;56.80;;;;;;5064255;28;34119;-76
2022/01/30 00:22:17;;;;;;;10.63;2.20;;;9.00;56.80;;;;;;5045908;28;34095;-76
2022/01/30 00:24:51;;;;;;;6.97;2.40;;;8.90;57.00;;;;;;5030920;28;35647;-77
2022/01/30 00:27:26;;;;;;;8.70;2.72;;;8.80;57.00;;;;;;5064422;28;34095;-76
2022/01/30 00:29:52;;;;;;;9.10;2.67;;;8.80;56.80;;;;;;5045975;28;34379;-77
2022/01/30 00:32:18;;;;;;;11.43;2.65;;;8.70;56.80;;;;;;5046337;28;34592;-76
2022/01/30 00:34:44;;;;;;;6.80;2.10;;;8.70;56.90;;;;;;5045171;28;36236;-77
2022/01/30 00:37:10;;;;;;;10.63;2.67;;;8.70;56.90;;;;;;5063574;28;34223;-76
2022/01/30 00:39:36;;;;;;;9.13;2.17;;;8.70;56.80;;;;;;5046185;28;34374;-76
2022/01/30 00:42:07;;;;;;;9.52;2.53;;;8.60;56.60;;;;;;5064445;28;34366;-76
2022/01/30 00:44:34;;;;;;;6.78;1.98;;;8.50;56.70;;;;;;5045385;28;35838;-76
2022/01/30 00:47:02;;;;;;;6.80;2.05;;;8.50;56.50;;;;;;5079126;28;34275;-76
2022/01/30 00:49:28;;;;;;;9.27;2.60;;;8.40;56.60;;;;;;5045743;28;34442;-76
2022/01/30 00:51:54;;;;;;;6.60;2.40;;;8.40;56.60;;;;;;5063568;28;34324;-76
2022/01/30 00:54:20;;;;;;;11.48;2.00;;;8.40;56.60;;;;;;5045419;28;35872;-76
2022/01/30 00:56:46;;;;;;;8.38;2.45;;;8.30;56.70;;;;;;5079552;28;34088;-76
2022/01/30 00:59:12;;;;;;;10.85;2.15;;;8.30;56.70;;;;;;5029617;28;34110;-76
2022/01/30 01:01:38;;;;;;;9.70;2.40;;;8.20;56.70;;;;;;5062449;28;34129;-76
2022/01/30 01:04:04;;;;;;;7.70;2.50;;;8.20;56.60;;;;;;5079018;28;35844;-76
2022/01/30 01:06:30;;;;;;;9.65;2.10;;;8.10;56.50;;;;;;5045595;28;34422;-76
2022/01/30 01:09:00;;;;;;;10.20;2.00;;;8.10;56.60;;;;;;5062300;28;34524;-77
2022/01/30 01:11:56;;;;;;;12.32;2.60;;;8.10;56.60;;;;;;5080084;28;34614;-76
2022/01/30 01:20:56;;;;;;;7.38;1.92;;;8.10;56.40;;;;;;5048219;28;34327;-76
2022/01/30 01:25:03;;;;;;;9.07;2.08;;;8.20;56.30;;;;;;5047469;28;34164;-76
2022/01/30 01:27:29;;;;;;;9.82;2.50;;;8.20;56.10;;;;;;5062296;28;34117;-76
2022/01/30 01:29:55;;;;;;;5.38;1.98;;;8.20;56.10;;;;;;5028774;28;34225;-76
2022/01/30 01:32:21;;;;;;;6.00;2.08;;;8.30;56.30;;;;;;5063478;28;34332;-77
2022/01/30 01:34:47;;;;;;;7.03;2.47;;;8.30;56.30;;;;;;5028837;28;36697;-76
2022/01/30 01:37:13;;;;;;;13.93;2.42;;;8.30;56.10;;;;;;5062690;28;34200;-76
2022/01/30 01:39:39;;;;;;;5.18;2.20;;;8.30;56.20;;;;;;5045579;28;34223;-76
2022/01/30 01:42:05;;;;;;;13.30;2.45;;;8.30;56.00;;;;;;5078451;28;34555;-76
2022/01/30 01:44:37;;;;;;;7.00;2.22;;;8.30;56.10;;;;;;5062522;28;34157;-77
2022/01/30 01:47:05;;;;;;;6.53;2.08;;;8.30;56.20;;;;;;5045192;28;34435;-76
2022/01/30 01:49:32;;;;;;;12.82;2.13;;;8.30;56.00;;;;;;5045593;28;34248;-76
2022/01/30 01:52:18;;;;;;;10.02;2.47;;;8.30;56.00;;;;;;5044957;28;34404;-77
2022/01/30 01:54:47;;;;;;;7.10;2.33;;;8.30;55.90;;;;;;5044764;28;35444;-76
2022/01/30 01:57:13;;;;;;;9.75;2.00;;;8.30;55.70;;;;;;5045871;28;34386;-77
2022/01/30 01:59:41;;;;;;;9.80;2.50;;;8.30;55.80;;;;;;5044895;28;34204;-76
2022/01/30 02:02:07;;;;;;;8.98;2.25;;;8.30;55.70;;;;;;5045054;28;34240;-76
2022/01/30 02:04:33;;;;;;;6.55;2.13;;;8.30;55.60;;;;;;5028353;28;35936;-76
2022/01/30 02:09:42;;;;;;;8.60;2.45;;;8.30;55.60;;;;;;5062677;28;34233;-76
2022/01/30 02:12:16;;;;;;;11.50;2.53;;;8.30;55.40;;;;;;5044931;28;34216;-77
2022/01/30 02:25:47;;;;;;;12.57;2.70;;;8.20;55.20;;;;;;5061566;28;34240;-76
2022/01/30 02:28:14;;;;;;;7.20;2.20;;;8.20;55.20;;;;;;5044710;28;34156;-76
2022/01/30 02:30:47;;;;;;;5.80;2.08;;;8.20;55.00;;;;;;5044625;28;34406;-76
2022/01/30 02:33:13;;;;;;;6.57;2.53;;;8.20;55.10;;;;;;5029030;28;34218;-76
2022/01/30 02:35:39;;;;;;;12.32;2.17;;;8.20;55.00;;;;;;5062248;28;34166;-76
2022/01/30 02:38:04;;;;;;;7.05;2.47;;;8.10;55.00;;;;;;5044136;28;34296;-76
2022/01/30 02:40:35;;;;;;;5.30;1.90;;;8.10;54.80;;;;;;5044458;28;34338;-76
2022/01/30 02:43:01;;;;;;;4.60;2.55;;;8.10;54.90;;;;;;5061373;28;35291;-76
2022/01/30 02:45:30;;;;;;;11.43;2.28;;;8.00;54.90;;;;;;5044722;28;35527;-76
2022/01/30 02:48:11;;;;;;;7.82;2.10;;;8.00;54.90;;;;;;5044528;28;34375;-77
2022/01/30 02:50:51;;;;;;;7.50;2.15;;;7.90;54.80;;;;;;5046837;28;34351;-76
2022/01/30 02:53:17;;;;;;;7.28;2.00;;;7.80;54.70;;;;;;5044926;28;34094;-76
2022/01/30 02:55:43;;;;;;;12.40;2.08;;;7.80;54.90;;;;;;5044169;28;36618;-76
2022/01/30 02:58:09;;;;;;;10.20;2.53;;;7.80;54.90;;;;;;5048230;28;34299;-77
2022/01/30 03:00:35;;;;;;;4.03;2.10;;;7.80;54.90;;;;;;5047661;28;34116;-76
2022/01/30 03:03:02;;;;;;;15.82;2.53;;;7.80;54.90;;;;;;5048313;28;34298;-76
2022/01/30 03:05:28;;;;;;;5.65;1.88;;;7.70;55.10;;;;;;5047189;28;35806;-76
2022/01/30 03:07:54;;;;;;;7.80;2.03;;;7.60;54.90;;;;;;5047185;28;34387;-76
2022/01/30 03:10:21;;;;;;;5.32;2.10;;;7.60;55.00;;;;;;5030856;28;34407;-76
2022/01/30 03:12:46;;;;;;;5.82;2.40;;;7.50;54.80;;;;;;5047621;28;34119;-76
2022/01/30 03:15:12;;;;;;;6.28;2.15;;;7.50;54.90;;;;;;5047182;28;35713;-76
2022/01/30 03:17:40;;;;;;;5.57;2.10;;;7.40;54.90;;;;;;5047384;28;34361;-76
2022/01/30 03:20:07;;;;;;;7.07;2.00;;;7.40;54.90;;;;;;5031152;28;34185;-76
2022/01/30 03:22:34;;;;;;;3.97;1.95;;;7.40;55.00;;;;;;5030555;28;34485;-76
2022/01/30 03:25:00;;;;;;;8.93;2.50;;;7.30;55.00;;;;;;5047129;28;34394;-76
2022/01/30 03:27:28;;;;;;;9.55;2.50;;;7.30;55.00;;;;;;5046759;28;34411;-76
2022/01/30 03:30:03;;;;;;;10.02;3.00;;;7.20;54.60;;;;;;5065368;28;34253;-76
2022/01/30 03:32:30;;;;;;;7.82;2.63;;;7.20;54.70;;;;;;5065296;28;34243;-76
2022/01/30 03:34:56;;;;;;;8.32;2.28;;;7.20;55.00;;;;;;5047068;28;36289;-77
2022/01/30 03:37:22;;;;;;;5.80;2.03;;;7.20;55.00;;;;;;5047286;28;34417;-76
2022/01/30 03:39:48;;;;;;;7.85;2.13;;;7.20;54.90;;;;;;5046561;28;34851;-76
2022/01/30 03:42:14;;;;;;;9.15;2.58;;;7.10;54.90;;;;;;5046952;28;34149;-76
2022/01/30 03:44:40;;;;;;;12.48;2.70;;;7.10;54.80;;;;;;5064054;28;35162;-76
2022/01/30 03:47:06;;;;;;;9.00;2.88;;;7.10;54.90;;;;;;5064962;28;34229;-76
2022/01/30 03:49:34;;;;;;;5.60;2.30;;;7.10;54.90;;;;;;5047028;28;34153;-76
2022/01/30 03:52:00;;;;;;;9.20;2.30;;;7.10;54.90;;;;;;5046107;28;34596;-76
2022/01/30 03:54:26;;;;;;;6.60;2.20;;;7.10;54.90;;;;;;5046100;28;35572;-76
2022/01/30 03:56:52;;;;;;;9.10;2.15;;;7.10;55.00;;;;;;5064415;28;34353;-75
2022/01/30 03:59:18;;;;;;;9.77;1.75;;;7.10;54.80;;;;;;5064591;28;35038;-76
2022/01/30 04:01:44;;;;;;;12.35;2.83;;;7.10;54.70;;;;;;5046610;28;34246;-76
2022/01/30 04:04:10;;;;;;;6.72;2.25;;;7.10;54.90;;;;;;5046202;28;35552;-76
2022/01/30 04:06:36;;;;;;;12.18;2.47;;;7.10;54.70;;;;;;5046586;28;34217;-76
2022/01/30 04:09:04;;;;;;;6.30;2.53;;;7.10;54.70;;;;;;5046144;28;34164;-76
2022/01/30 04:11:30;;;;;;;6.43;1.90;;;7.10;54.70;;;;;;5046526;28;34110;-76
2022/01/30 04:13:56;;;;;;;10.75;2.33;;;7.10;54.60;;;;;;5045473;28;35874;-76
2022/01/30 04:16:22;;;;;;;12.15;2.28;;;7.10;54.70;;;;;;5064295;28;34183;-76
2022/01/30 04:18:48;;;;;;;9.20;2.45;;;7.10;54.70;;;;;;5045812;28;34245;-76
2022/01/30 04:21:14;;;;;;;4.43;1.73;;;7.20;54.70;;;;;;5046869;28;34371;-76
2022/01/30 04:23:40;;;;;;;9.65;2.35;;;7.10;54.70;;;;;;5029337;28;36745;-76
2022/01/30 04:26:06;;;;;;;10.00;1.88;;;7.10;54.60;;;;;;5046257;28;34344;-76
2022/01/30 04:28:33;;;;;;;8.90;2.50;;;7.10;54.70;;;;;;5046409;28;34331;-76
2022/01/30 04:30:59;;;;;;;8.82;2.00;;;7.10;54.70;;;;;;5063203;28;34178;-76
2022/01/30 04:33:25;;;;;;;8.27;1.98;;;7.00;54.50;;;;;;5045750;28;35578;-76
2022/01/30 04:35:52;;;;;;;6.15;2.20;;;7.00;54.50;;;;;;5046323;28;34524;-76
2022/01/30 04:38:27;;;;;;;7.50;2.35;;;6.90;54.60;;;;;;5030827;28;34134;-76
2022/01/30 04:55:00;;;;;;;6.35;2.05;;;6.50;54.80;;;;;;5048590;28;34233;-76
2022/01/30 04:57:21;;;;;;;8.55;2.30;;;6.50;54.70;;;;;;5049002;28;34342;-76
2022/01/30 05:00:04;;;;;;;7.22;2.47;;;6.50;54.90;;;;;;5063818;28;34088;-76
2022/01/30 05:02:48;;;;;;;4.75;1.80;;;6.40;54.70;;;;;;5031898;28;34302;-76
2022/01/30 05:05:41;;;;;;;6.65;2.08;;;6.40;54.70;;;;;;5064931;28;35896;-76
2022/01/30 05:08:02;;;;;;;5.97;2.03;;;6.30;54.70;;;;;;5034176;28;34038;-76
2022/01/30 05:10:28;;;;;;;10.90;1.80;;;6.30;54.80;;;;;;5062491;28;34231;-76
2022/01/30 05:12:57;;;;;;;8.55;2.13;;;6.20;54.60;;;;;;5045595;28;34302;-76
2022/01/30 05:15:26;;;;;;;10.77;2.53;;;6.20;54.70;;;;;;5046540;28;36064;-76
2022/01/30 05:17:52;;;;;;;7.72;2.05;;;6.20;54.80;;;;;;5062931;28;34441;-76
2022/01/30 05:20:18;;;;;;;6.05;2.25;;;6.20;54.80;;;;;;5028014;28;34274;-76
2022/01/30 05:22:45;;;;;;;9.27;2.08;;;6.20;54.90;;;;;;5045442;28;34336;-76
2022/01/30 05:25:12;;;;;;;6.38;2.10;;;6.20;54.90;;;;;;5045277;28;36494;-76
2022/01/30 05:27:38;;;;;;;9.57;2.10;;;6.20;55.00;;;;;;5028578;28;34269;-76
2022/01/30 05:30:06;;;;;;;6.88;1.73;;;6.10;54.70;;;;;;5045036;28;34331;-76
2022/01/30 05:32:32;;;;;;;10.02;2.17;;;6.20;54.80;;;;;;5062586;28;34547;-75
2022/01/30 05:34:58;;;;;;;7.65;2.17;;;6.10;54.80;;;;;;5061769;28;35686;-76
2022/01/30 05:37:24;;;;;;;5.95;2.10;;;6.10;54.90;;;;;;5062995;28;33729;-76
2022/01/30 05:39:51;;;;;;;7.38;1.98;;;6.10;54.90;;;;;;5061602;28;34250;-76
2022/01/30 05:42:19;;;;;;;8.13;2.42;;;6.10;54.90;;;;;;5045991;28;34090;-76
2022/01/30 05:44:55;;;;;;;5.78;1.80;;;6.00;54.80;;;;;;5027910;28;36002;-75
2022/01/30 05:47:35;;;;;;;5.63;1.80;;;6.00;54.80;;;;;;5029643;28;34342;-76
2022/01/30 05:50:01;;;;;;;8.57;2.08;;;5.90;54.90;;;;;;5044388;28;34459;-76
2022/01/30 05:52:27;;;;;;;3.13;1.55;;;5.80;54.80;;;;;;5045139;28;34194;-76
2022/01/30 05:54:53;;;;;;;13.18;2.10;;;5.80;54.80;;;;;;5027790;28;35935;-76
2022/01/30 05:57:19;;;;;;;7.00;1.95;;;5.70;54.90;;;;;;5061274;28;34430;-76
2022/01/30 05:59:45;;;;;;;6.57;2.17;;;5.60;54.90;;;;;;5060878;28;34279;-76
2022/01/30 06:02:11;;;;;;;8.27;2.40;;;5.50;54.90;;;;;;5044927;28;34201;-76
2022/01/30 06:04:37;;;;;;;4.07;1.98;;;5.40;54.80;;;;;;5061718;28;35791;-76
2022/01/30 06:07:03;;;;;;;6.90;2.38;;;5.30;54.80;;;;;;5028024;28;34150;-76
2022/01/30 06:09:29;;;;;;;6.85;1.75;;;5.30;54.80;;;;;;5028353;28;34225;-76
2022/01/30 06:11:55;;;;;;;3.35;1.80;;;5.10;54.70;;;;;;5044655;28;34100;-75
2022/01/30 06:14:22;;;;;;;4.65;1.80;;;5.10;54.90;;;;;;5044327;28;36739;-75
2022/01/30 06:16:49;;;;;;;3.38;1.50;;;5.00;54.90;;;;;;5045041;28;34312;-75
2022/01/30 06:19:18;;;;;;;5.97;1.42;;;4.90;55.00;;;;;;5061138;28;34359;-76
2022/01/30 06:21:45;;;;;;;5.75;1.67;;;4.80;55.00;;;;;;5044755;28;34428;-76
2022/01/30 06:24:11;;;;;;;7.57;1.60;;;4.70;55.20;;;;;;5044133;28;35598;-76
2022/01/30 06:26:37;;;;;;;5.00;1.88;;;4.60;55.30;;;;;;5044813;28;34407;-76
2022/01/30 06:29:03;;;;;;;4.57;1.63;;;4.50;55.40;;;;;;5044398;28;34200;-76
2022/01/30 06:31:29;;;;;;;3.13;1.70;;;4.40;55.50;;;;;;5062353;28;34158;-76
2022/01/30 06:33:55;;;;;;;4.90;1.48;;;4.40;55.50;;;;;;5047782;28;34326;-76
2022/01/30 06:36:21;;;;;;;5.93;1.80;;;4.30;55.30;;;;;;5047700;28;34129;-76
2022/01/30 06:38:47;;;;;;;10.73;2.03;;;4.20;55.20;;;;;;5031587;28;34332;-76
2022/01/30 06:41:14;;;;;;;4.93;1.55;;;4.10;55.30;;;;;;5047637;28;34149;-76
2022/01/30 06:43:40;;;;;;;2.65;1.55;;;4.00;55.50;;;;;;5065612;28;34451;-76
2022/01/30 06:46:08;;;;;;;4.15;1.80;;;4.00;55.50;;;;;;5047831;28;34215;-76
2022/01/30 06:48:34;;;;;;;8.80;1.88;;;3.90;55.70;;;;;;5048398;28;34398;-76
2022/01/30 06:50:59;;;;;;;7.43;2.15;;;3.80;55.50;;;;;;5047917;28;34359;-76
2022/01/30 06:53:25;;;;;;;4.47;2.10;;;3.80;55.60;;;;;;5030676;28;35593;-76
2022/01/30 06:55:51;;;;;;;5.28;1.65;;;3.70;55.60;;;;;;5047255;28;34242;-76
2022/01/30 06:58:17;;;;;;;3.78;1.92;;;3.60;55.50;;;;;;5064395;28;34136;-76
2022/01/30 07:00:43;;;;;;;3.05;1.85;;;3.60;55.50;;;;;;5047636;28;34572;-76
2022/01/30 07:03:09;;;;;;;4.63;1.80;;;3.50;55.50;;;;;;5047359;28;36475;-76
2022/01/30 07:05:35;;;;;;;3.35;1.75;;;3.50;55.50;;;;;;5030860;28;34452;-76
2022/01/30 07:08:01;;;;;;;4.57;1.88;;;3.40;55.70;;;;;;5046695;28;34467;-76
2022/01/30 07:10:27;;;;;;;4.28;1.80;;;3.40;55.70;;;;;;5064259;28;34246;-76
2022/01/30 07:12:53;;;;;;;9.23;1.95;;;3.30;55.80;;;;;;5046956;28;36736;-76
2022/01/30 07:15:19;;;;;;;5.65;2.13;;;3.30;56.20;;;;;;5047658;28;34174;-76
2022/01/30 07:17:45;;;;;;;3.63;1.45;;;3.30;57.00;;;;;;5030922;28;34265;-76
2022/01/30 07:20:11;;;;;;;6.85;2.10;;;3.20;56.10;;;;;;5030657;28;34508;-75
2022/01/30 07:22:37;;;;;;;8.32;1.75;;;3.20;56.20;;;;;;5047357;28;35512;-75
2022/01/30 07:25:06;;;;;;;7.28;2.35;;;3.20;56.20;;;;;;5046744;28;34391;-75
2022/01/30 07:27:32;;;;;;;7.18;2.40;;;3.30;56.40;;;;;;5064037;28;34935;-76
2022/01/30 07:29:58;;;;;;;6.15;1.98;;;3.30;56.50;;;;;;5030526;28;34201;-75
2022/01/30 07:32:24;;;;;;;5.00;1.65;;;3.30;56.50;;;;;;5064631;28;34393;-76
2022/01/30 07:34:51;;;;;;;3.67;2.10;;;3.30;56.40;;;;;;5046457;28;34281;-76
2022/01/30 07:37:18;;;;;;;5.65;1.90;;;3.40;56.40;;;;;;5030473;28;34215;-75
2022/01/30 07:39:45;;;;;;;4.70;2.10;;;3.40;56.30;;;;;;5047199;28;34406;-75
2022/01/30 07:42:11;;;;;;;7.32;2.53;;;3.50;56.40;;;;;;5045965;28;36409;-76
2022/01/30 07:44:38;;;;;;;8.63;2.55;;;3.50;56.30;;;;;;5045940;28;34309;-76
2022/01/30 07:47:04;;;;;;;9.23;2.97;;;3.60;56.30;;;;;;5047171;28;34310;-76
2022/01/30 07:49:30;;;;;;;13.65;3.60;;;3.60;56.20;;;;;;5064742;28;34306;-76
2022/01/30 07:51:56;;;;;;;9.45;3.60;;;3.70;56.30;;;;;;5045919;28;35529;-76
2022/01/30 07:54:22;;;;;;;5.78;2.25;;;3.70;56.10;;;;;;5046613;28;34373;-76
2022/01/30 07:56:48;;;;;;;7.60;3.15;;;3.70;56.10;;;;;;5046213;28;34177;-76
2022/01/30 07:59:14;;;;;;;11.27;2.58;;;3.80;56.10;;;;;;5046396;28;34423;-76
2022/01/30 08:01:40;;;;;;;9.25;2.92;;;3.80;56.10;;;;;;5046551;28;34266;-76
2022/01/30 08:04:07;;;;;;;9.90;3.58;;;3.90;56.20;;;;;;5029864;28;34051;-76
2022/01/30 08:06:38;;;;;;;6.57;2.85;;;3.90;56.10;;;;;;5064624;28;34034;-76
2022/01/30 08:09:04;;;;;;;10.15;3.47;;;4.00;56.00;;;;;;5046526;28;34061;-76
2022/01/30 08:11:30;;;;;;;5.88;2.78;;;4.00;56.00;;;;;;5063838;28;34202;-76
2022/01/30 08:13:56;;;;;;;10.15;3.13;;;4.10;55.90;;;;;;5046323;28;34132;-76
2022/01/30 08:16:24;;;;;;;9.15;3.13;;;4.20;56.00;;;;;;5046419;28;34267;-76
2022/01/30 08:18:50;;;;;;;7.05;2.60;;;4.30;56.00;;;;;;5046089;28;34360;-76
2022/01/30 08:21:16;;;;;;;7.53;3.17;;;4.40;55.90;;;;;;5046045;28;35858;-76
2022/01/30 08:23:42;;;;;;;13.02;3.13;;;4.60;55.90;;;;;;5046027;28;34227;-76
2022/01/30 08:26:07;;;;;;;6.00;2.78;;;4.70;55.50;;;;;;5046250;28;34149;-76
2022/01/30 08:28:33;;;;;;;8.20;2.63;;;4.80;55.30;;;;;;5063216;28;34575;-76
2022/01/30 08:31:00;;;;;;;10.27;2.85;;;4.90;55.30;;;;;;5029530;28;35939;-76
2022/01/30 08:33:26;;;;;;;7.47;3.33;;;5.00;55.40;;;;;;5029915;28;34197;-76
2022/01/30 08:35:52;;;;;;;13.00;3.20;;;5.10;55.40;;;;;;5046043;28;34236;-76
2022/01/30 08:38:19;;;;;;;9.00;3.38;;;5.10;55.40;;;;;;5046328;28;34199;-76
2022/01/30 08:40:46;;;;;;;9.35;2.92;;;5.20;55.30;;;;;;5029086;28;36691;-76
2022/01/30 08:43:12;;;;;;;6.07;3.03;;;5.30;55.40;;;;;;5063167;28;34311;-76
2022/01/30 08:45:38;;;;;;;11.10;3.10;;;5.40;55.40;;;;;;5046050;28;34262;-76
2022/01/30 08:48:04;;;;;;;7.72;3.05;;;5.40;55.50;;;;;;5064332;28;34443;-76
2022/01/30 08:50:30;;;;;;;9.00;2.40;;;5.50;55.50;;;;;;5045554;28;35608;-76
2022/01/30 08:52:56;;;;;;;9.77;3.35;;;5.50;55.20;;;;;;5062693;28;34192;-76
2022/01/30 08:55:23;;;;;;;5.75;2.95;;;5.60;55.30;;;;;;5045892;28;34255;-76
2022/01/30 08:57:50;;;;;;;4.05;2.22;;;5.70;55.50;;;;;;5063301;28;34218;-77
2022/01/30 09:00:17;;;;;;;10.85;3.30;;;5.90;55.30;;;;;;5046556;28;36426;-76
2022/01/30 09:02:44;;;;;;;7.05;2.63;;;6.00;55.10;;;;;;5030435;28;34090;-76
2022/01/30 09:05:12;;;;;;;8.90;2.90;;;6.10;54.80;;;;;;5064598;28;34270;-76
2022/01/30 09:07:38;;;;;;;10.48;2.50;;;6.30;54.90;;;;;;5029351;28;34208;-76
2022/01/30 09:10:08;;;;;;;9.45;2.92;;;6.40;54.60;;;;;;5046099;28;35005;-75
2022/01/30 09:12:34;;;;;;;13.70;3.30;;;6.60;54.90;;;;;;5045895;28;34319;-76
2022/01/30 09:15:03;;;;;;;9.63;3.08;;;6.80;54.30;;;;;;5045376;28;34491;-76
2022/01/30 09:17:29;;;;;;;8.95;2.90;;;6.90;54.20;;;;;;5045325;28;34571;-76
2022/01/30 09:19:55;;;;;;;7.68;2.72;;;7.00;53.90;;;;;;5062975;28;34547;-76
2022/01/30 09:22:21;;;;;;;19.08;3.63;;;7.10;53.80;;;;;;5045640;28;34229;-76
2022/01/30 09:24:48;;;;;;;10.30;2.97;;;7.20;54.40;;;;;;5045451;28;34160;-76
2022/01/30 09:27:15;;;;;;;9.43;3.28;;;7.20;53.40;;;;;;5045366;28;34505;-76
2022/01/30 09:29:43;;;;;;;8.48;2.83;;;7.30;53.50;;;;;;5045047;28;36120;-76
2022/01/30 09:32:09;;;;;;;6.25;2.40;;;7.40;53.60;;;;;;5028532;28;34228;-76
2022/01/30 09:34:36;;;;;;;5.03;2.30;;;7.50;53.40;;;;;;5062807;28;34405;-76
2022/01/30 09:37:04;;;;;;;5.70;2.38;;;7.50;53.40;;;;;;5045287;28;34260;-76
2022/01/30 09:39:31;;;;;;;9.90;2.20;;;7.60;53.40;;;;;;5044708;28;35523;-77
2022/01/30 09:41:57;;;;;;;6.28;2.13;;;7.70;53.30;;;;;;5028124;28;34402;-76
2022/01/30 09:44:23;;;;;;;4.68;1.98;;;7.80;53.10;;;;;;5045121;28;34131;-76
2022/01/30 09:46:50;;;;;;;7.43;2.50;;;7.90;53.10;;;;;;5044982;28;34360;-75
2022/01/30 09:49:21;;;;;;;8.05;2.53;;;8.00;52.70;;;;;;5044778;28;36002;-76
2022/01/30 09:51:47;;;;;;;6.38;2.08;;;8.20;53.00;;;;;;5043985;28;34411;-76
2022/01/30 09:54:13;;;;;;;8.30;2.42;;;8.40;52.60;;;;;;5078359;28;34244;-76
2022/01/30 09:56:39;;;;;;;10.25;2.30;;;8.60;52.30;;;;;;5078922;28;34120;-76
2022/01/30 09:59:05;;;;;;;6.90;2.40;;;8.80;52.30;;;;;;5044695;28;36376;-76
2022/01/30 10:01:34;;;;;;;4.25;1.98;;;8.90;52.00;;;;;;5044981;28;34085;-76
2022/01/30 10:04:01;;;;;;;10.93;2.00;;;9.00;51.20;;;;;;5028348;28;34158;-76
2022/01/30 10:06:37;;;;;;;9.63;2.22;;;9.10;50.50;;;;;;5046279;28;34221;-76
2022/01/30 10:09:21;;;;;;;9.13;1.85;;;9.30;51.30;;;;;;5048706;28;35612;-76
2022/01/30 10:11:50;;;;;;;6.95;1.95;;;9.60;49.90;;;;;;5066551;28;34271;-76
2022/01/30 10:14:16;;;;;;;8.40;1.60;;;9.80;50.60;;;;;;5066054;28;34134;-76
2022/01/30 10:16:48;;;;;;;7.35;1.70;;;9.90;50.50;;;;;;5066015;28;34873;-76
2022/01/30 10:19:19;;;;;;;11.00;2.33;;;10.20;50.20;;;;;;5032040;28;36514;-77
2022/01/30 10:21:47;;;;;;;4.38;1.67;;;10.40;49.70;;;;;;5049162;28;34125;-76
2022/01/30 10:24:22;;;;;;;7.15;2.08;;;10.50;49.50;;;;;;5067128;28;34157;-76
2022/01/30 10:26:49;;;;;;;9.55;2.03;;;10.70;48.00;;;;;;5032842;28;34459;-76
2022/01/30 10:29:22;;;;;;;6.25;1.90;;;10.90;49.20;;;;;;5064456;28;36160;-76
2022/01/30 10:32:05;;;;;;;9.07;1.88;;;10.90;47.40;;;;;;5066631;28;34170;-77
2022/01/30 10:34:33;;;;;;;9.75;1.80;;;10.80;42.60;;;;;;5048265;28;34310;-76
2022/01/30 10:37:23;;;;;;;5.93;1.85;;;10.60;48.90;;;;;;5048498;28;34604;-76
2022/01/30 10:39:57;;;;;;;7.38;2.05;;;10.50;46.50;;;;;;5047634;28;36699;-77
2022/01/30 10:42:34;;;;;;;5.00;1.60;;;10.40;46.20;;;;;;5048117;28;34233;-76
2022/01/30 10:45:00;;;;;;;4.55;1.55;;;10.20;45.70;;;;;;5047405;28;34145;-76
2022/01/30 10:47:26;;;;;;;3.97;1.45;;;9.90;49.00;;;;;;5065478;28;34345;-77
2022/01/30 10:49:53;;;;;;;6.32;1.77;;;9.80;49.20;;;;;;5047022;28;36309;-77
2022/01/30 10:52:19;;;;;;;6.57;1.88;;;9.90;49.30;;;;;;5064835;28;34251;-76
2022/01/30 10:54:49;;;;;;;7.00;2.00;;;10.00;48.70;;;;;;5065352;28;34353;-77
2022/01/30 10:57:16;;;;;;;6.40;1.50;;;10.10;48.40;;;;;;5047896;28;34557;-76
2022/01/30 10:59:45;;;;;;;12.20;2.03;;;10.10;49.20;;;;;;5047092;28;35898;-76
2022/01/30 11:02:15;;;;;;;11.63;1.95;;;10.10;48.70;;;;;;5047519;28;34318;-76
2022/01/30 11:04:42;;;;;;;5.28;1.92;;;10.00;48.60;;;;;;5030840;28;34165;-76
2022/01/30 11:07:09;;;;;;;7.50;1.77;;;10.00;48.60;;;;;;5064542;28;34626;-76
2022/01/30 11:09:42;;;;;;;5.18;1.80;;;9.90;48.90;;;;;;5047166;28;36216;-76
2022/01/30 11:12:13;;;;;;;5.55;1.60;;;9.90;48.30;;;;;;5047323;28;34172;-76
2022/01/30 11:15:04;;;;;;;5.43;1.40;;;9.80;48.60;;;;;;5064830;28;34298;-76
2022/01/30 11:17:27;;;;;;;4.20;1.85;;;9.90;48.60;;;;;;5049295;28;34291;-76
2022/01/30 11:19:56;;;;;;;11.48;1.77;;;10.00;48.10;;;;;;5063525;28;35981;-76
2022/01/30 11:22:24;;;;;;;9.27;1.40;;;10.20;48.30;;;;;;5047818;28;34209;-76
2022/01/30 11:25:07;;;;;;;8.07;1.95;;;10.20;47.20;;;;;;5047377;28;34164;-76
2022/01/30 11:27:34;;;;;;;3.60;1.20;;;10.30;39.30;;;;;;5047278;28;34584;-76
2022/01/30 11:30:01;;;;;;;5.88;1.50;;;10.40;46.30;;;;;;5064332;28;34279;-76
2022/01/30 11:32:29;;;;;;;4.15;1.25;;;10.40;46.50;;;;;;5046798;28;34369;-76
2022/01/30 11:34:56;;;;;;;3.22;0.90;;;10.20;45.80;;;;;;5066005;28;34172;-77
2022/01/30 11:37:24;;;;;;;9.52;1.40;;;10.10;45.80;;;;;;5065308;28;34485;-76
2022/01/30 11:39:52;;;;;;;11.45;1.55;;;10.00;45.50;;;;;;5048124;28;34366;-76
2022/01/30 11:42:21;;;;;;;3.65;1.13;;;10.10;46.50;;;;;;5047114;28;34266;-76
2022/01/30 11:44:49;;;;;;;7.38;1.60;;;10.10;44.40;;;;;;5063378;28;34112;-77
2022/01/30 11:47:18;;;;;;;3.72;1.48;;;10.10;44.00;;;;;;5064823;28;34153;-77
2022/01/30 11:49:52;;;;;;;9.38;1.58;;;10.00;44.70;;;;;;5030650;28;35266;-77
2022/01/30 11:52:19;;;;;;;5.63;1.48;;;10.00;43.00;;;;;;5046830;28;34405;-76
2022/01/30 11:54:50;;;;;;;5.13;1.67;;;10.00;45.60;;;;;;5046436;28;34444;-76
2022/01/30 11:57:45;;;;;;;6.03;1.20;;;10.10;45.00;;;;;;5030599;28;34812;-76
2022/01/30 12:00:35;;;;;;;7.03;1.60;;;10.20;37.50;;;;;;5050747;28;34405;-76
2022/01/30 12:03:25;;;;;;;5.68;1.90;;;10.20;40.20;;;;;;5066639;28;34116;-76
2022/01/30 12:05:52;;;;;;;6.18;1.50;;;10.30;40.00;;;;;;5046007;28;34178;-77
2022/01/30 12:08:42;;;;;;;3.13;1.10;;;10.30;45.20;;;;;;5029926;28;34203;-76
2022/01/30 12:11:40;;;;;;;4.68;1.30;;;10.30;40.70;;;;;;5046080;28;36136;-76
2022/01/30 12:14:10;;;;;;;6.70;1.30;;;10.20;39.20;;;;;;5046147;28;34191;-77
2022/01/30 12:16:45;;;;;;;4.13;1.48;;;10.20;44.50;;;;;;5046063;28;34405;-76
2022/01/30 12:19:16;;;;;;;5.78;1.55;;;10.20;41.80;;;;;;5030167;28;34321;-76
2022/01/30 12:21:43;;;;;;;5.10;1.65;;;10.20;44.70;;;;;;5063323;28;35772;-76
2022/01/30 12:24:22;;;;;;;5.55;1.27;;;10.10;44.80;;;;;;5064159;28;34357;-76
2022/01/30 12:26:51;;;;;;;6.88;1.40;;;10.10;36.30;;;;;;5047169;28;34319;-76
2022/01/30 12:29:34;;;;;;;8.35;1.20;;;10.10;43.40;;;;;;5063869;28;34358;-76
2022/01/30 12:32:31;;;;;;;5.55;1.38;;;10.20;39.00;;;;;;5045461;28;36268;-77
2022/01/30 12:35:05;;;;;;;4.82;1.50;;;10.30;36.20;;;;;;5079462;28;34261;-76
2022/01/30 12:37:34;;;;;;;5.40;1.50;;;10.50;39.10;;;;;;5046174;28;34352;-76
2022/01/30 12:40:16;;;;;;;5.50;1.58;;;10.60;43.50;;;;;;5045860;28;34453;-76
2022/01/30 12:42:42;;;;;;;5.20;1.58;;;10.70;36.00;;;;;;5062936;28;36401;-77
2022/01/30 12:45:10;;;;;;;3.28;1.10;;;10.70;43.10;;;;;;5045447;28;34351;-76
2022/01/30 12:47:52;;;;;;;4.88;1.48;;;10.70;42.90;;;;;;5063646;28;34208;-76
2022/01/30 12:50:20;;;;;;;5.57;1.60;;;10.80;38.10;;;;;;5063573;28;34307;-77
2022/01/30 12:52:50;;;;;;;5.13;1.13;;;10.90;42.30;;;;;;5028966;28;35848;-77
2022/01/30 12:55:17;;;;;;;4.40;1.40;;;11.00;43.00;;;;;;5045955;28;34480;-76
2022/01/30 12:57:46;;;;;;;4.43;1.13;;;11.10;42.90;;;;;;5045581;28;34212;-76
2022/01/30 13:00:15;;;;;;;4.88;1.30;;;11.20;42.30;;;;;;5045464;28;34229;-76
2022/01/30 13:02:59;;;;;;;5.95;1.40;;;11.30;40.60;;;;;;5062504;28;36431;-76
2022/01/30 13:05:27;;;;;;;3.05;1.30;;;11.30;36.40;;;;;;5028957;28;34251;-76
2022/01/30 13:07:55;;;;;;;6.53;1.40;;;11.30;41.50;;;;;;5045508;28;34311;-76
2022/01/30 13:10:22;;;;;;;5.63;1.40;;;11.30;41.70;;;;;;5045230;28;34333;-77
2022/01/30 13:12:49;;;;;;;7.40;1.55;;;11.40;42.00;;;;;;5046307;28;35583;-76
2022/01/30 13:15:18;;;;;;;5.63;1.08;;;11.30;41.50;;;;;;5065063;28;34010;-77
2022/01/30 13:17:44;;;;;;;5.85;1.45;;;11.30;41.40;;;;;;5030266;28;34208;-77
2022/01/30 13:20:12;;;;;;;7.18;1.85;;;11.30;40.40;;;;;;5046949;28;34184;-77
2022/01/30 13:22:40;;;;;;;6.82;1.17;;;11.20;41.10;;;;;;5029442;28;36135;-76
2022/01/30 13:25:11;;;;;;;2.03;0.98;;;11.20;41.20;;;;;;5063829;28;34206;-76
2022/01/30 13:27:39;;;;;;;5.13;1.08;;;11.20;39.90;;;;;;5046491;28;34063;-76
2022/01/30 13:30:06;;;;;;;6.03;1.42;;;11.10;41.40;;;;;;5029942;28;34601;-76
2022/01/30 13:32:36;;;;;;;3.97;1.48;;;11.20;41.00;;;;;;5045437;28;35948;-76
2022/01/30 13:35:03;;;;;;;3.85;1.25;;;11.10;40.70;;;;;;5044075;28;34309;-76
2022/01/30 13:37:37;;;;;;;6.40;1.30;;;11.00;41.00;;;;;;5045108;28;34354;-76